createdAt,value
2023-04-20T00:00:11.458Z,16.98
2023-04-20T00:02:39.888Z,16.00
2023-04-20T00:05:10.256Z,15.55
2023-04-20T00:07:37.442Z,16.80
2023-04-20T00:10:04.680Z,16.42
2023-04-20T00:12:31.804Z,16.48
2023-04-20T00:14:58.505Z,16.00
2023-04-20T00:17:25.538Z,15.65
2023-04-20T00:19:52.862Z,17.05
2023-04-20T00:22:19.694Z,16.02
2023-04-20T00:24:46.760Z,15.95
2023-04-20T00:27:13.503Z,16.70
2023-04-20T00:29:40.144Z,15.77
2023-04-20T00:32:07.010Z,17.05
2023-04-20T00:34:33.888Z,16.27
2023-04-20T00:39:37.462Z,15.45
2023-04-20T00:42:09.603Z,16.65
2023-04-20T00:44:36.585Z,15.07
2023-04-20T00:47:03.553Z,15.27
2023-04-20T00:49:31.918Z,14.40
2023-04-20T00:51:59.298Z,14.20
2023-04-20T00:54:30.068Z,14.20
2023-04-20T00:56:58.075Z,14.30
2023-04-20T00:59:24.893Z,14.50
2023-04-20T01:01:51.684Z,13.73
2023-04-20T01:04:18.988Z,14.40
2023-04-20T01:06:46.181Z,15.18
2023-04-20T01:09:13.070Z,14.45
2023-04-20T01:11:39.998Z,14.50
2023-04-20T01:14:07.046Z,14.43
2023-04-20T01:16:37.039Z,15.10
2023-04-20T01:19:04.221Z,16.60
2023-04-20T01:21:31.196Z,15.55
2023-04-20T01:23:58.229Z,15.13
2023-04-20T01:26:25.883Z,15.98
2023-04-20T01:28:52.657Z,14.57
2023-04-20T01:31:20.024Z,14.27
2023-04-20T01:33:47.050Z,13.95
2023-04-20T01:36:13.858Z,15.05
2023-04-20T01:38:41.494Z,14.75
2023-04-20T01:41:09.555Z,14.55
2023-04-20T01:43:38.183Z,14.70
2023-04-20T01:46:05.740Z,16.17
2023-04-20T01:48:32.993Z,14.85
2023-04-20T01:50:59.703Z,14.60
2023-04-20T01:53:26.378Z,14.68
2023-04-20T01:55:53.041Z,15.52
2023-04-20T01:58:19.713Z,15.13
2023-04-20T02:00:46.401Z,14.30
2023-04-20T02:03:13.192Z,15.27
2023-04-20T02:05:39.898Z,14.27
2023-04-20T02:08:06.590Z,13.90
2023-04-20T02:10:33.207Z,14.05
2023-04-20T02:13:01.227Z,13.93
2023-04-20T02:15:28.203Z,15.27
2023-04-20T02:17:54.988Z,14.02
2023-04-20T02:20:21.611Z,15.40
2023-04-20T02:22:48.451Z,15.48
2023-04-20T02:25:15.277Z,14.02
2023-04-20T02:27:42.405Z,15.68
2023-04-20T02:30:09.564Z,14.35
2023-04-20T02:32:36.575Z,15.32
2023-04-20T02:35:06.987Z,14.93
2023-04-20T02:37:33.675Z,15.00
2023-04-20T02:40:00.325Z,16.08
2023-04-20T02:42:27.028Z,15.13
2023-04-20T02:44:53.895Z,15.63
2023-04-20T02:47:20.675Z,17.42
2023-04-20T02:49:47.401Z,16.08
2023-04-20T02:52:14.560Z,16.60
2023-04-20T02:54:41.604Z,16.38
2023-04-20T02:57:08.408Z,17.52
2023-04-20T02:59:35.098Z,17.40
2023-04-20T03:02:01.775Z,18.15
2023-04-20T03:04:28.694Z,17.38
2023-04-20T03:06:56.017Z,18.13
2023-04-20T03:09:23.320Z,16.65
2023-04-20T03:11:50.605Z,16.98
2023-04-20T03:14:17.411Z,17.80
2023-04-20T03:16:44.254Z,17.52
2023-04-20T03:19:11.048Z,19.17
2023-04-20T03:21:37.774Z,17.70
2023-04-20T03:24:04.888Z,18.50
2023-04-20T03:26:31.513Z,18.98
2023-04-20T03:28:58.432Z,19.00
2023-04-20T03:31:25.646Z,18.38
2023-04-20T03:33:52.640Z,20.60
2023-04-20T03:36:19.415Z,19.60
2023-04-20T03:38:46.024Z,21.25
2023-04-20T03:41:12.606Z,19.25
2023-04-20T03:43:39.242Z,19.48
2023-04-20T03:46:05.881Z,18.35
2023-04-20T03:48:33.135Z,19.63
2023-04-20T03:50:59.859Z,20.45
2023-04-20T03:53:26.516Z,20.00
2023-04-20T03:55:53.397Z,21.58
2023-04-20T03:58:20.120Z,21.10
2023-04-20T04:00:46.707Z,20.83
2023-04-20T04:03:13.596Z,20.90
2023-04-20T04:05:43.401Z,21.55
2023-04-20T04:08:09.965Z,22.33
2023-04-20T04:10:36.566Z,23.45
2023-04-20T04:13:03.294Z,22.40
2023-04-20T04:15:29.967Z,22.35
2023-04-20T04:17:56.628Z,22.42
2023-04-20T04:20:23.598Z,20.77
2023-04-20T04:22:52.096Z,21.10
2023-04-20T04:25:18.816Z,22.27
2023-04-20T04:27:46.571Z,21.02
2023-04-20T04:30:13.822Z,22.17
2023-04-20T04:32:41.386Z,21.65
2023-04-20T04:35:08.649Z,20.85
2023-04-20T04:37:35.329Z,21.05
2023-04-20T04:40:03.787Z,20.95
2023-04-20T04:42:31.053Z,21.63
2023-04-20T04:44:58.544Z,21.83
2023-04-20T04:47:25.316Z,22.23
2023-04-20T04:49:52.185Z,22.77
2023-04-20T04:52:18.801Z,23.77
2023-04-20T04:54:45.865Z,26.50
2023-04-20T04:57:12.723Z,25.85
2023-04-20T04:59:39.328Z,26.30
2023-04-20T05:02:06.038Z,28.33
2023-04-20T05:04:32.844Z,26.15
2023-04-20T05:06:59.603Z,28.92
2023-04-20T05:09:26.658Z,29.85
2023-04-20T05:11:53.250Z,28.52
2023-04-20T05:14:19.835Z,29.92
2023-04-20T05:16:46.520Z,29.40
2023-04-20T05:19:13.300Z,31.00
2023-04-20T05:21:39.887Z,31.45
2023-04-20T05:24:06.618Z,29.60
2023-04-20T05:26:33.362Z,29.77
2023-04-20T05:29:00.076Z,28.05
2023-04-20T05:31:26.925Z,29.42
2023-04-20T05:33:53.613Z,29.50
2023-04-20T05:36:20.857Z,30.08
2023-04-20T05:38:47.509Z,31.00
2023-04-20T05:41:14.224Z,30.83
2023-04-20T05:43:41.109Z,29.40
2023-04-20T05:46:07.911Z,30.17
2023-04-20T05:48:34.602Z,30.15
2023-04-20T05:51:01.193Z,30.33
2023-04-20T05:53:27.876Z,28.92
2023-04-20T05:55:54.681Z,30.60
2023-04-20T05:58:21.452Z,28.58
2023-04-20T06:00:48.315Z,31.25
2023-04-20T06:03:18.074Z,30.55
2023-04-20T06:05:44.982Z,28.90
2023-04-20T06:08:11.984Z,28.38
2023-04-20T06:10:38.928Z,29.15
2023-04-20T06:13:05.998Z,29.45
2023-04-20T06:15:32.786Z,28.77
2023-04-20T06:18:00.897Z,26.50
2023-04-20T06:20:27.525Z,26.15
2023-04-20T06:22:54.572Z,26.10
2023-04-20T06:25:21.225Z,27.50
2023-04-20T06:30:15.079Z,28.83
2023-04-20T06:32:41.799Z,27.50
2023-04-20T06:35:09.063Z,27.23
2023-04-20T06:37:36.548Z,27.13
2023-04-20T06:40:08.246Z,27.67
2023-04-20T06:42:36.282Z,26.38
2023-04-20T06:45:03.384Z,25.77
2023-04-20T06:47:34.037Z,25.45
2023-04-20T06:50:10.143Z,26.35
2023-04-20T06:52:38.979Z,26.42
2023-04-20T06:55:06.179Z,25.30
2023-04-20T06:57:32.855Z,25.13
2023-04-20T06:59:59.586Z,23.92
2023-04-20T07:02:26.468Z,24.67
2023-04-20T07:04:53.216Z,26.20
2023-04-20T07:07:19.930Z,25.23
2023-04-20T07:09:46.639Z,23.98
2023-04-20T07:12:15.802Z,22.63
2023-04-20T07:14:42.474Z,22.55
2023-04-20T07:17:09.059Z,24.02
2023-04-20T07:19:35.654Z,24.20
2023-04-20T07:22:02.274Z,23.88
2023-04-20T07:24:29.818Z,24.08
2023-04-20T07:26:57.242Z,23.63
2023-04-20T07:29:23.947Z,22.92
2023-04-20T07:31:50.599Z,23.70
2023-04-20T07:34:17.801Z,22.27
2023-04-20T07:36:44.777Z,22.98
2023-04-20T07:39:11.465Z,22.35
2023-04-20T07:41:38.135Z,21.83
2023-04-20T07:44:04.937Z,23.17
2023-04-20T07:46:31.611Z,22.40
2023-04-20T07:48:58.207Z,22.65
2023-04-20T07:51:24.816Z,23.75
2023-04-20T07:53:51.606Z,22.67
2023-04-20T07:56:18.331Z,22.65
2023-04-20T07:58:44.940Z,22.55
2023-04-20T08:01:11.614Z,23.30
2023-04-20T08:03:38.819Z,23.40
2023-04-20T08:06:06.304Z,23.77
2023-04-20T08:08:33.164Z,22.35
2023-04-20T08:10:59.776Z,22.10
2023-04-20T08:13:27.618Z,20.17
2023-04-20T08:15:54.620Z,19.98
2023-04-20T08:18:21.462Z,20.35
2023-04-20T08:20:48.289Z,18.17
2023-04-20T08:23:15.157Z,18.70
2023-04-20T08:25:41.902Z,17.42
2023-04-20T08:28:11.976Z,16.58
2023-04-20T08:30:42.175Z,15.32
2023-04-20T08:33:08.930Z,16.17
2023-04-20T08:35:35.770Z,16.13
2023-04-20T08:38:02.550Z,16.23
2023-04-20T08:40:30.818Z,15.63
2023-04-20T08:42:59.719Z,15.85
2023-04-20T08:45:27.165Z,15.13
2023-04-20T08:47:54.279Z,14.82
2023-04-20T08:50:21.021Z,15.05
2023-04-20T08:52:48.115Z,15.32
2023-04-20T08:55:18.738Z,15.45
2023-04-20T08:57:47.752Z,15.30
2023-04-20T09:00:15.300Z,16.17
2023-04-20T09:02:55.876Z,16.48
2023-04-20T09:05:28.303Z,15.23
2023-04-20T09:07:57.659Z,16.25
2023-04-20T09:10:25.499Z,15.15
2023-04-20T09:12:53.201Z,14.70
2023-04-20T09:15:29.809Z,13.07
2023-04-20T09:17:56.618Z,14.00
2023-04-20T09:20:31.464Z,13.98
2023-04-20T09:22:58.288Z,14.45
2023-04-20T09:25:29.111Z,14.93
2023-04-20T09:27:56.526Z,14.20
2023-04-20T09:30:23.373Z,14.80
2023-04-20T09:33:01.795Z,14.82
2023-04-20T09:35:28.513Z,16.23
2023-04-20T09:37:55.186Z,15.32
2023-04-20T09:40:24.416Z,14.80
2023-04-20T09:42:52.971Z,15.25
2023-04-20T09:45:20.432Z,15.32
2023-04-20T09:47:47.794Z,15.40
2023-04-20T09:50:26.798Z,15.90
2023-04-20T09:53:00.396Z,17.63
2023-04-20T09:55:27.778Z,18.33
2023-04-20T09:57:54.487Z,18.27
2023-04-20T10:00:21.743Z,18.23
2023-04-20T10:02:48.657Z,18.08
2023-04-20T10:05:17.009Z,18.85
2023-04-20T10:07:44.430Z,20.05
2023-04-20T10:10:17.007Z,19.40
2023-04-20T10:12:53.978Z,18.05
2023-04-20T10:15:21.981Z,17.42
2023-04-20T10:17:49.136Z,19.13
2023-04-20T10:20:26.835Z,18.88
2023-04-20T10:22:54.809Z,18.27
2023-04-20T10:25:28.494Z,18.85
2023-04-20T10:27:57.457Z,18.00
2023-04-20T10:30:26.274Z,16.33
2023-04-20T10:33:11.346Z,14.52
2023-04-20T10:35:43.363Z,14.85
2023-04-20T10:38:12.167Z,14.55
2023-04-20T10:40:39.317Z,13.95
2023-04-20T10:43:19.507Z,14.73
2023-04-20T10:45:46.103Z,14.82
2023-04-20T10:48:14.847Z,14.90
2023-04-20T10:50:42.689Z,13.80
2023-04-20T10:53:20.014Z,14.35
2023-04-20T10:55:57.555Z,14.65
2023-04-20T10:58:24.971Z,13.80
2023-04-20T11:01:02.237Z,14.05
2023-04-20T11:03:30.437Z,13.40
2023-04-20T11:06:01.550Z,14.27
2023-04-20T11:08:39.140Z,12.80
2023-04-20T11:11:06.170Z,13.50
2023-04-20T11:13:33.288Z,13.57
2023-04-20T11:15:59.916Z,13.20
2023-04-20T11:18:26.570Z,13.43
2023-04-20T11:20:54.786Z,12.82
2023-04-20T11:23:22.714Z,13.50
2023-04-20T11:25:52.276Z,12.13
2023-04-20T11:28:19.475Z,13.43
2023-04-20T11:30:46.821Z,13.73
2023-04-20T11:33:14.576Z,12.52
2023-04-20T11:35:42.688Z,14.32
2023-04-20T11:38:12.701Z,13.20
2023-04-20T11:40:39.550Z,13.63
2023-04-20T11:43:06.339Z,13.77
2023-04-20T11:45:36.802Z,14.65
2023-04-20T11:48:07.243Z,14.73
2023-04-20T11:50:34.649Z,13.50
2023-04-20T11:53:01.747Z,14.57
2023-04-20T11:55:28.304Z,14.48
2023-04-20T11:57:54.892Z,14.13
2023-04-20T12:00:21.995Z,13.48
2023-04-20T12:02:48.944Z,13.90
2023-04-20T12:05:15.693Z,14.05
2023-04-20T12:07:43.350Z,13.35
2023-04-20T12:10:10.351Z,13.07
2023-04-20T12:12:38.605Z,12.95
2023-04-20T12:15:05.882Z,14.00
2023-04-20T12:17:32.565Z,13.55
2023-04-20T12:19:59.193Z,13.32
2023-04-20T12:22:25.901Z,13.20
2023-04-20T12:24:52.574Z,14.27
2023-04-20T12:27:19.177Z,13.73
2023-04-20T12:29:45.838Z,13.65
2023-04-20T12:32:12.424Z,14.10
2023-04-20T12:34:39.026Z,14.52
2023-04-20T12:37:05.576Z,13.32
2023-04-20T12:39:32.923Z,13.15
2023-04-20T12:41:59.980Z,13.82
2023-04-20T12:44:26.603Z,14.30
2023-04-20T12:46:53.264Z,14.95
2023-04-20T12:49:20.048Z,14.48
2023-04-20T12:51:46.894Z,14.43
2023-04-20T12:54:13.796Z,14.15
2023-04-20T12:56:40.669Z,14.70
2023-04-20T12:59:07.278Z,13.98
2023-04-20T13:01:33.996Z,14.55
2023-04-20T13:04:00.781Z,14.00
2023-04-20T13:06:28.029Z,13.93
2023-04-20T13:08:54.659Z,14.45
2023-04-20T13:11:22.094Z,14.00
2023-04-20T13:13:48.678Z,14.32
2023-04-20T13:16:15.489Z,14.30
2023-04-20T13:18:42.126Z,13.30
2023-04-20T13:21:08.729Z,14.00
2023-04-20T13:23:35.409Z,13.05
2023-04-20T13:26:02.247Z,13.98
2023-04-20T13:28:28.936Z,12.82
2023-04-20T13:30:57.531Z,12.02
2023-04-20T13:33:24.263Z,13.60
2023-04-20T13:35:50.887Z,12.52
2023-04-20T13:38:17.658Z,11.98
2023-04-20T13:40:44.633Z,12.25
2023-04-20T13:43:12.060Z,12.40
2023-04-20T13:45:39.066Z,12.98
2023-04-20T13:48:05.954Z,12.77
2023-04-20T13:50:32.592Z,12.70
2023-04-20T13:52:59.170Z,11.77
2023-04-20T13:55:27.099Z,13.00
2023-04-20T13:57:53.868Z,12.93
2023-04-20T14:00:20.751Z,13.02
2023-04-20T14:02:47.787Z,12.00
2023-04-20T14:05:14.750Z,11.30
2023-04-20T14:07:41.492Z,11.55
2023-04-20T14:10:08.938Z,11.90
2023-04-20T14:12:35.922Z,11.88
2023-04-20T14:15:03.104Z,11.93
2023-04-20T14:17:29.764Z,11.20
2023-04-20T14:19:56.934Z,11.50
2023-04-20T14:22:23.585Z,10.85
2023-04-20T14:24:50.229Z,12.05
2023-04-20T14:27:17.403Z,12.10
2023-04-20T14:29:45.114Z,12.35
2023-04-20T14:32:12.029Z,10.90
2023-04-20T14:34:38.622Z,11.48
2023-04-20T14:37:05.403Z,11.27
2023-04-20T14:39:31.976Z,11.45
2023-04-20T14:41:58.543Z,11.05
2023-04-20T14:44:25.146Z,11.63
2023-04-20T14:46:52.343Z,11.15
2023-04-20T14:49:19.819Z,10.88
2023-04-20T14:51:47.826Z,10.43
2023-04-20T14:54:16.463Z,10.40
2023-04-20T14:56:43.390Z,9.93
2023-04-20T14:59:11.384Z,10.48
2023-04-20T15:01:40.055Z,9.85
2023-04-20T15:04:12.486Z,9.88
2023-04-20T15:06:39.268Z,10.07
2023-04-20T15:09:06.394Z,10.02
2023-04-20T15:11:34.195Z,10.00
2023-04-20T15:14:01.118Z,10.10
2023-04-20T15:16:27.845Z,9.73
2023-04-20T15:18:55.311Z,10.18
2023-04-20T15:21:23.426Z,10.27
2023-04-20T15:23:52.921Z,9.27
2023-04-20T15:26:23.315Z,8.93
2023-04-20T15:28:50.078Z,9.25
2023-04-20T15:31:18.689Z,9.30
2023-04-20T15:33:48.099Z,8.10
2023-04-20T15:36:19.421Z,8.77
2023-04-20T15:38:46.708Z,7.80
2023-04-20T15:41:13.359Z,7.72
2023-04-20T15:43:40.044Z,7.72
2023-04-20T15:46:06.660Z,7.65
2023-04-20T15:48:33.279Z,7.85
2023-04-20T15:51:00.031Z,7.68
2023-04-20T15:53:26.823Z,7.53
2023-04-20T15:55:53.449Z,6.95
2023-04-20T15:58:20.180Z,7.70
2023-04-20T16:00:46.814Z,6.72
2023-04-20T16:03:13.553Z,6.53
2023-04-20T16:05:40.433Z,6.68
2023-04-20T16:08:07.067Z,7.18
2023-04-20T16:10:34.158Z,6.40
2023-04-20T16:13:00.829Z,7.15
2023-04-20T16:15:27.617Z,6.75
2023-04-20T16:17:54.748Z,7.22
2023-04-20T16:20:21.596Z,7.22
2023-04-20T16:22:48.208Z,6.65
2023-04-20T16:25:23.167Z,7.22
2023-04-20T16:27:51.555Z,6.85
2023-04-20T16:30:18.664Z,7.15
2023-04-20T16:32:45.584Z,7.35
2023-04-20T16:35:12.252Z,7.15
2023-04-20T16:37:38.873Z,7.18
2023-04-20T16:40:06.170Z,7.25
2023-04-20T16:42:32.885Z,6.35
2023-04-20T16:44:59.539Z,6.45
2023-04-20T16:47:26.264Z,7.28
2023-04-20T16:49:52.886Z,6.32
2023-04-20T16:52:19.515Z,7.00
2023-04-20T16:54:46.260Z,6.80
2023-04-20T16:57:12.853Z,7.30
2023-04-20T16:59:39.457Z,7.20
2023-04-20T17:02:06.303Z,7.18
2023-04-20T17:04:33.131Z,7.07
2023-04-20T17:06:59.713Z,7.25
2023-04-20T17:09:26.315Z,7.07
2023-04-20T17:11:53.014Z,6.97
2023-04-20T17:14:19.799Z,7.28
2023-04-20T17:16:46.738Z,6.82
2023-04-20T17:19:13.996Z,7.75
2023-04-20T17:21:40.677Z,7.00
2023-04-20T17:24:07.376Z,6.65
2023-04-20T17:26:33.973Z,7.30
2023-04-20T17:29:00.540Z,7.10
2023-04-20T17:31:27.176Z,7.40
2023-04-20T17:33:53.907Z,7.57
2023-04-20T17:36:20.582Z,6.95
2023-04-20T17:38:47.328Z,7.15
2023-04-20T17:41:13.912Z,7.30
2023-04-20T17:43:41.020Z,7.45
2023-04-20T17:46:08.196Z,7.10
2023-04-20T17:48:34.912Z,7.35
2023-04-20T17:51:01.581Z,7.65
2023-04-20T17:53:28.578Z,7.28
2023-04-20T17:55:55.250Z,7.65
2023-04-20T17:58:21.909Z,6.97
2023-04-20T18:00:48.658Z,7.30
2023-04-20T18:03:15.845Z,6.93
2023-04-20T18:05:42.584Z,7.38
2023-04-20T18:08:10.363Z,7.57
2023-04-20T18:10:37.662Z,7.40
2023-04-20T18:13:04.778Z,7.45
2023-04-20T18:15:31.670Z,8.13
2023-04-20T18:17:58.340Z,7.30
2023-04-20T18:20:25.311Z,7.90
2023-04-20T18:22:51.993Z,7.75
2023-04-20T18:25:19.390Z,7.75
2023-04-20T18:27:46.450Z,7.47
2023-04-20T18:30:14.002Z,7.80
2023-04-20T18:32:40.684Z,8.32
2023-04-20T18:35:08.427Z,8.00
2023-04-20T18:37:35.119Z,8.60
2023-04-20T18:40:01.869Z,8.45
2023-04-20T18:42:31.383Z,8.10
2023-04-20T18:44:58.169Z,8.07
2023-04-20T18:47:26.333Z,8.35
2023-04-20T18:49:53.455Z,8.20
2023-04-20T18:52:20.442Z,7.80
2023-04-20T18:54:47.619Z,8.80
2023-04-20T18:57:14.376Z,7.63
2023-04-20T18:59:40.999Z,7.85
2023-04-20T19:02:07.724Z,7.95
2023-04-20T19:04:36.270Z,7.47
2023-04-20T19:07:02.997Z,8.73
2023-04-20T19:09:29.568Z,9.05
2023-04-20T19:11:57.125Z,8.55
2023-04-20T19:14:23.810Z,8.43
2023-04-20T19:16:50.607Z,8.40
2023-04-20T19:19:17.431Z,9.43
2023-04-20T19:21:44.065Z,9.00
2023-04-20T19:24:10.652Z,8.98
2023-04-20T19:26:37.274Z,8.38
2023-04-20T19:29:04.232Z,8.65
2023-04-20T19:31:36.757Z,8.23
2023-04-20T19:34:04.801Z,8.00
2023-04-20T19:36:32.264Z,8.40
2023-04-20T19:38:59.299Z,8.45
2023-04-20T19:41:26.329Z,9.43
2023-04-20T19:43:53.215Z,8.45
2023-04-20T19:46:20.358Z,8.50
2023-04-20T19:48:47.104Z,8.10
2023-04-20T19:51:13.717Z,8.40
2023-04-20T19:53:40.325Z,7.82
2023-04-20T19:56:07.239Z,8.15
2023-04-20T19:58:33.929Z,8.13
2023-04-20T20:01:00.624Z,7.93
2023-04-20T20:03:27.567Z,7.75
2023-04-20T20:05:54.393Z,8.48
2023-04-20T20:08:21.065Z,7.75
2023-04-20T20:10:47.724Z,8.25
2023-04-20T20:13:14.563Z,8.30
2023-04-20T20:15:42.721Z,7.88
2023-04-20T20:18:10.691Z,8.20
2023-04-20T20:20:37.816Z,8.40
2023-04-20T20:23:04.695Z,8.55
2023-04-20T20:25:32.836Z,7.90
2023-04-20T20:28:01.238Z,8.27
2023-04-20T20:30:28.016Z,8.05
2023-04-20T20:32:54.697Z,8.60
2023-04-20T20:35:27.639Z,8.88
2023-04-20T20:37:54.496Z,8.13
2023-04-20T20:40:21.302Z,8.43
2023-04-20T20:42:47.960Z,7.63
2023-04-20T20:45:14.693Z,7.90
2023-04-20T20:47:44.193Z,7.70
2023-04-20T20:50:15.247Z,8.10
2023-04-20T20:52:42.028Z,8.00
2023-04-20T20:55:09.602Z,7.65
2023-04-20T20:57:36.473Z,8.27
2023-04-20T21:00:12.379Z,8.23
2023-04-20T21:02:39.614Z,7.60
2023-04-20T21:05:07.178Z,7.65
2023-04-20T21:07:33.870Z,8.27
2023-04-20T21:10:00.869Z,8.57
2023-04-20T21:12:27.511Z,7.80
2023-04-20T21:14:54.250Z,7.97
2023-04-20T21:17:20.949Z,7.40
2023-04-20T21:19:47.675Z,7.45
2023-04-20T21:22:14.386Z,7.50
2023-04-20T21:24:41.244Z,7.10
2023-04-20T21:27:07.871Z,7.47
2023-04-20T21:29:34.482Z,7.50
2023-04-20T21:32:01.194Z,7.82
2023-04-20T21:34:27.948Z,7.68
2023-04-20T21:36:54.685Z,7.25
2023-04-20T21:39:21.410Z,7.00
2023-04-20T21:41:48.022Z,7.50
2023-04-20T21:44:14.643Z,8.13
2023-04-20T21:46:41.423Z,7.75
2023-04-20T21:49:08.243Z,7.43
2023-04-20T21:51:34.841Z,6.95
2023-04-20T21:54:01.595Z,7.55
2023-04-20T21:56:28.225Z,6.97
2023-04-20T21:58:54.802Z,7.55
2023-04-20T22:01:21.558Z,6.85
2023-04-20T22:03:48.379Z,7.25
2023-04-20T22:06:15.669Z,7.25
2023-04-20T22:08:42.283Z,6.88
2023-04-20T22:11:09.163Z,7.68
2023-04-20T22:13:36.327Z,7.13
2023-04-20T22:16:03.178Z,6.75
2023-04-20T22:18:29.956Z,7.40
2023-04-20T22:20:56.544Z,7.38
2023-04-20T22:23:23.269Z,7.60
2023-04-20T22:25:49.904Z,7.45
2023-04-20T22:28:16.804Z,7.72
2023-04-20T22:30:43.549Z,7.38
2023-04-20T22:33:10.377Z,7.57
2023-04-20T22:35:37.080Z,8.02
2023-04-20T22:38:03.766Z,7.05
2023-04-20T22:40:30.516Z,8.32
2023-04-20T22:42:57.097Z,7.10
2023-04-20T22:45:23.818Z,7.78
2023-04-20T22:47:50.446Z,6.80
2023-04-20T22:50:17.416Z,7.10
2023-04-20T22:52:44.324Z,7.15
2023-04-20T22:55:11.194Z,7.50
2023-04-20T22:57:39.138Z,7.30
2023-04-20T23:00:13.922Z,7.63
2023-04-20T23:02:41.484Z,7.00
2023-04-20T23:05:09.008Z,7.50
2023-04-20T23:07:35.974Z,7.47
2023-04-20T23:10:02.842Z,7.18
2023-04-20T23:12:29.650Z,7.18
2023-04-20T23:14:59.036Z,7.95
2023-04-20T23:17:25.759Z,7.57
2023-04-20T23:19:52.639Z,8.18
2023-04-20T23:22:19.310Z,7.82
2023-04-20T23:24:45.888Z,7.05
2023-04-20T23:27:12.468Z,7.32
2023-04-20T23:29:39.067Z,7.90
2023-04-20T23:32:05.849Z,7.85
2023-04-20T23:34:32.591Z,7.03
2023-04-20T23:36:59.188Z,6.97
2023-04-20T23:39:25.886Z,7.25
2023-04-20T23:41:52.555Z,7.20
2023-04-20T23:44:19.162Z,7.25
2023-04-20T23:46:46.352Z,7.43
2023-04-20T23:49:13.019Z,7.95
2023-04-20T23:51:39.712Z,6.78
2023-04-20T23:54:06.425Z,7.25
2023-04-20T23:56:33.213Z,7.47
2023-04-20T23:58:59.914Z,6.93
